Time;durP1;ratioP1;P1;durP2;ratioP2;P2;SDS_P1;SDS_P2;PMS_P1;PMS_P2;Temp;Humidity;BMP_temperature;BMP_pressure;BME280_temperature;BME280_humidity;BME280_pressure;Samples;Min_cycle;Max_cycle;Signal;HPM_P1;HPM_P2
2022/07/12 00:01:33;;;;;;;3.22;2.10;;;;;;;21.13;52.98;101289.72;4196232;28;20047;-60
2022/07/12 00:03:37;;;;;;;4.50;2.42;;;;;;;21.15;52.95;101279.13;4210114;28;20097;-60
2022/07/12 00:05:40;;;;;;;2.55;1.85;;;;;;;21.09;52.83;101283.59;4215852;28;20044;-60
2022/07/12 00:07:43;;;;;;;2.65;2.15;;;;;;;21.05;53.00;101287.16;4191566;28;20467;-60
2022/07/12 00:09:46;;;;;;;4.57;2.30;;;;;;;21.05;53.18;101288.94;4209322;28;20075;-60
2022/07/12 00:11:49;;;;;;;2.78;1.90;;;;;;;21.05;52.96;101287.16;4210684;28;20077;-60
2022/07/12 00:13:52;;;;;;;4.60;2.38;;;;;;;21.03;53.17;101282.84;4206735;28;20040;-60
2022/07/12 00:15:55;;;;;;;3.60;2.58;;;;;;;21.06;53.15;101290.72;4199679;28;20036;-60
2022/07/12 00:17:58;;;;;;;3.28;1.77;;;;;;;21.02;53.25;101281.06;4211374;28;20040;-60
2022/07/12 00:20:02;;;;;;;3.13;2.13;;;;;;;20.97;53.63;101281.16;4206939;28;20036;-60
2022/07/12 00:22:05;;;;;;;;;;;;;;;20.77;53.93;101285.88;4212032;28;20087;-60
2022/07/12 00:24:08;;;;;;;3.88;2.17;;;;;;;20.81;54.01;101283.16;4214933;28;19927;-60
2022/07/12 00:26:11;;;;;;;4.85;2.25;;;;;;;20.81;54.23;101292.84;4198229;28;20037;-60
2022/07/12 00:28:13;;;;;;;3.88;2.17;;;;;;;20.85;54.19;101287.50;4214745;28;20135;-60
2022/07/12 00:30:16;;;;;;;4.05;2.10;;;;;;;20.84;54.02;101288.41;4199593;28;20047;-60
2022/07/12 00:32:19;;;;;;;6.43;2.05;;;;;;;20.81;54.08;101290.19;4209569;28;20115;-60
2022/07/12 00:34:22;;;;;;;4.35;2.30;;;;;;;20.80;54.05;101285.81;4215431;28;20058;-60
2022/07/12 00:36:26;;;;;;;4.72;2.30;;;;;;;20.77;54.08;101284.09;4216038;28;20032;-61
2022/07/12 00:38:29;;;;;;;2.88;2.00;;;;;;;20.73;54.40;101278.00;4216128;28;20050;-60
2022/07/12 00:40:32;;;;;;;3.63;2.42;;;;;;;20.72;54.39;101283.28;4214992;28;20040;-61
2022/07/12 00:42:35;;;;;;;3.40;2.38;;;;;;;20.77;54.06;101286.75;4212423;28;20426;-60
2022/07/12 00:44:38;;;;;;;3.70;1.92;;;;;;;20.69;54.38;101281.56;4199260;28;20048;-60
2022/07/12 00:46:41;;;;;;;5.28;2.15;;;;;;;20.66;54.58;101283.34;4215477;28;20062;-60
2022/07/12 00:48:44;;;;;;;2.97;2.10;;;;;;;20.65;54.52;101281.63;4202402;28;20040;-60
2022/07/12 00:50:48;;;;;;;3.58;2.30;;;;;;;20.63;54.44;101278.97;4206934;28;20039;-60
2022/07/12 00:52:55;;;;;;;4.20;2.10;;;;;;;20.64;54.31;101277.22;4213996;28;20036;-60
2022/07/12 00:54:58;;;;;;;2.42;1.83;;;;;;;20.59;54.39;101277.28;4215897;28;20044;-60
2022/07/12 00:57:01;;;;;;;3.22;1.65;;;;;;;20.58;54.62;101271.13;4199894;28;20071;-60
2022/07/12 00:59:04;;;;;;;3.20;1.90;;;;;;;20.54;54.64;101272.03;4196110;28;20043;-59
2022/07/12 01:01:07;;;;;;;2.55;1.80;;;;;;;20.52;54.57;101275.63;4215523;28;20040;-60
2022/07/12 01:03:10;;;;;;;2.80;1.80;;;;;;;20.49;55.40;101281.81;4214062;28;20123;-60
2022/07/12 01:05:14;;;;;;;2.38;1.58;;;;;;;20.44;55.64;101282.78;4220832;28;20066;-60
2022/07/12 01:07:17;;;;;;;2.05;1.70;;;;;;;20.35;56.08;101275.84;4207194;28;20431;-60
2022/07/12 01:09:21;;;;;;;4.63;1.80;;;;;;;20.31;56.42;101274.13;4213407;28;20039;-60
2022/07/12 01:11:24;;;;;;;;;;;;;;;20.10;56.61;101272.66;4206431;28;20131;-60
2022/07/12 01:13:27;;;;;;;2.45;1.70;;;;;;;20.17;56.47;101276.97;4206819;28;20451;-60
2022/07/12 01:15:30;;;;;;;4.47;1.90;;;;;;;20.20;56.27;101274.28;4213539;28;20036;-60
2022/07/12 01:17:33;;;;;;;3.70;2.05;;;;;;;20.20;55.97;101272.50;4207466;28;20052;-60
2022/07/12 01:19:38;;;;;;;3.60;1.80;;;;;;;20.14;56.50;101275.22;4214749;28;20135;-60
2022/07/12 01:21:43;;;;;;;2.47;2.13;;;;;;;20.07;56.69;101273.56;4213401;28;20039;-60
2022/07/12 01:23:49;;;;;;;3.67;1.80;;;;;;;20.07;56.40;101278.84;4206805;28;20040;-60
2022/07/12 01:25:52;;;;;;;6.43;2.47;;;;;;;20.05;56.43;101278.00;4213393;28;20131;-60
2022/07/12 01:28:01;;;;;;;3.15;2.00;;;;;;;20.02;56.51;101284.19;4215386;28;20033;-60
2022/07/12 01:30:05;;;;;;;5.78;2.45;;;;;;;20.03;56.38;101282.41;4198935;28;20064;-60
2022/07/12 01:34:25;;;;;;;2.33;1.85;;;;;;;19.99;56.36;101281.56;4189447;28;20050;-60
2022/07/12 01:36:28;;;;;;;2.58;2.10;;;;;;;20.00;55.97;101278.03;4212862;28;20082;-60
2022/07/12 01:38:32;;;;;;;4.63;2.22;;;;;;;19.97;56.46;101282.47;4206687;28;20044;-60
2022/07/12 01:40:36;;;;;;;3.92;1.80;;;;;;;19.93;56.75;101288.69;4213597;28;20040;-60
2022/07/12 01:42:40;;;;;;;;;;;;;;;19.70;57.19;101276.59;4210583;28;20509;-60
2022/07/12 01:44:43;;;;;;;6.43;2.10;;;;;;;19.76;56.93;101279.16;4210532;28;19920;-60
2022/07/12 01:46:45;;;;;;;3.28;1.83;;;;;;;19.73;57.14;101273.91;4213365;28;20046;-60
2022/07/12 01:48:48;;;;;;;2.40;2.17;;;;;;;19.74;57.40;101277.41;4209122;28;20513;-60
2022/07/12 01:50:51;;;;;;;3.63;2.17;;;;;;;19.73;57.04;101271.28;4210523;28;20031;-60
2022/07/12 01:52:55;;;;;;;5.28;2.28;;;;;;;19.73;57.12;101275.66;4217042;28;20493;-60
2022/07/12 01:54:58;;;;;;;2.35;1.77;;;;;;;19.69;57.45;101273.06;4202314;28;20126;-60
2022/07/12 01:57:02;;;;;;;4.63;2.20;;;;;;;19.68;57.15;101273.97;4213471;28;20521;-60
2022/07/12 01:59:07;;;;;;;2.10;1.70;;;;;;;19.67;57.27;101274.84;4207796;28;20078;-60
2022/07/12 02:01:10;;;;;;;;;;;;;;;19.51;57.75;101279.41;4213956;28;20032;-60
2022/07/12 02:03:13;;;;;;;4.18;1.58;;;;;;;19.58;57.89;101276.72;4205655;28;19920;-60
2022/07/12 02:05:17;;;;;;;2.88;1.70;;;;;;;19.61;57.61;101279.31;4184306;28;20086;-60
2022/07/12 02:07:20;;;;;;;2.28;1.70;;;;;;;19.62;57.94;101273.16;4214603;28;20050;-60
2022/07/12 02:09:23;;;;;;;5.43;2.00;;;;;;;19.60;58.18;101278.44;4211214;28;20036;-60
2022/07/12 02:11:26;;;;;;;7.78;1.98;;;;;;;19.60;58.17;101277.59;4188235;28;20049;-60
2022/07/12 02:13:30;;;;;;;4.90;2.05;;;;;;;19.59;57.88;101279.31;4212718;28;20466;-60
2022/07/12 02:15:33;;;;;;;5.05;2.40;;;;;;;19.54;58.35;101279.38;4212302;28;20040;-60
2022/07/12 02:17:37;;;;;;;2.88;1.95;;;;;;;19.56;58.35;101273.22;4202082;28;20040;-60
2022/07/12 02:19:39;;;;;;;3.70;2.15;;;;;;;19.56;58.25;101283.78;4203032;28;20439;-60
2022/07/12 02:21:42;;;;;;;3.72;1.67;;;;;;;19.56;57.91;101276.72;4208840;28;20074;-61
2022/07/12 02:23:45;;;;;;;3.85;1.90;;;;;;;19.54;58.01;101278.50;4209665;28;20037;-60
2022/07/12 02:25:48;;;;;;;5.18;2.33;;;;;;;19.53;57.99;101279.41;4209526;28;20500;-60
2022/07/12 02:27:51;;;;;;;2.80;1.95;;;;;;;19.55;58.48;101280.25;4209685;28;20048;-61
2022/07/12 02:29:55;;;;;;;5.35;2.10;;;;;;;19.59;58.55;101273.19;4213342;28;20119;-61
2022/07/12 02:31:58;;;;;;;4.57;2.47;;;;;;;19.57;58.19;101280.25;4211562;28;20551;-61
2022/07/12 02:34:01;;;;;;;2.75;1.98;;;;;;;19.51;58.62;101279.41;4207010;28;20040;-60
2022/07/12 02:36:04;;;;;;;4.93;2.13;;;;;;;19.53;58.66;101274.97;4212613;28;20042;-61
2022/07/12 02:38:07;;;;;;;6.45;2.30;;;;;;;19.52;58.94;101277.63;4220724;28;20064;-62
2022/07/12 02:42:31;;;;;;;3.95;2.00;;;;;;;19.41;59.46;101277.75;4196743;28;20135;-61
2022/07/12 02:44:34;;;;;;;3.88;1.60;;;;;;;19.39;59.71;101284.81;4209456;28;20110;-61
2022/07/12 02:46:38;;;;;;;3.78;2.40;;;;;;;19.39;59.55;101283.91;4202701;28;20094;-61
2022/07/12 02:48:42;;;;;;;3.15;1.88;;;;;;;19.33;59.50;101291.00;4202231;28;20032;-60
2022/07/12 02:50:45;;;;;;;6.50;2.13;;;;;;;19.35;59.27;101289.22;4208734;28;20041;-61
2022/07/12 02:52:48;;;;;;;3.88;2.15;;;;;;;19.35;59.57;101289.22;4210208;28;20028;-61
2022/07/12 02:54:51;;;;;;;8.27;2.10;;;;;;;19.36;59.37;101290.97;4219266;28;20123;-61
2022/07/12 02:56:54;;;;;;;3.40;2.22;;;;;;;19.35;59.58;101293.63;4208586;28;20547;-61
2022/07/12 02:58:57;;;;;;;3.10;2.05;;;;;;;19.35;59.61;101288.38;4204349;28;20499;-61
2022/07/12 03:01:00;;;;;;;2.42;1.60;;;;;;;19.31;59.79;101290.13;4207740;28;20405;-61
2022/07/12 03:03:04;;;;;;;3.33;2.03;;;;;;;19.29;59.94;101296.28;4196392;28;20028;-61
2022/07/12 03:05:09;;;;;;;3.85;2.08;;;;;;;19.29;59.61;101301.56;4212529;28;20070;-61
2022/07/12 03:07:11;;;;;;;3.72;1.90;;;;;;;19.26;59.49;101298.97;4215225;28;20532;-61
2022/07/12 03:09:14;;;;;;;3.72;2.13;;;;;;;19.31;59.54;101298.03;4213633;28;20126;-61
2022/07/12 03:11:17;;;;;;;5.03;2.42;;;;;;;19.35;59.08;101302.41;4213907;28;20040;-61
2022/07/12 03:13:20;;;;;;;6.72;3.03;;;;;;;19.32;59.39;101304.22;4211954;28;20063;-61
2022/07/12 03:15:23;;;;;;;3.80;2.00;;;;;;;19.35;58.87;101304.19;4204357;28;20577;-61
2022/07/12 03:17:26;;;;;;;5.05;1.80;;;;;;;19.30;58.91;101303.34;4198009;28;20047;-61
2022/07/12 03:19:30;;;;;;;2.75;2.00;;;;;;;19.27;59.04;101306.00;4210704;28;20036;-61
2022/07/12 03:21:33;;;;;;;6.65;1.95;;;;;;;19.28;58.95;101302.47;4202214;28;20089;-61
2022/07/12 03:23:36;;;;;;;2.85;1.98;;;;;;;19.24;59.17;101298.13;4212036;28;20036;-61
2022/07/12 03:25:39;;;;;;;4.82;2.53;;;;;;;19.21;59.09;101311.31;4202135;28;20043;-61
2022/07/12 03:27:42;;;;;;;3.28;2.05;;;;;;;19.16;59.62;101320.13;4200404;28;20036;-61
2022/07/12 03:29:46;;;;;;;3.47;1.90;;;;;;;19.16;59.82;101312.22;4212470;28;20032;-61
2022/07/12 03:31:49;;;;;;;6.68;2.40;;;;;;;19.19;59.55;101309.56;4200055;28;20413;-59
2022/07/12 03:33:52;;;;;;;3.28;2.28;;;;;;;19.17;59.91;101308.72;4209221;28;20039;-59
2022/07/12 03:35:56;;;;;;;4.10;2.45;;;;;;;19.18;59.74;101312.22;4212910;28;20040;-60
2022/07/12 03:37:59;;;;;;;4.50;2.50;;;;;;;19.12;59.65;101313.13;4211736;28;20040;-61
2022/07/12 03:40:01;;;;;;;3.50;2.60;;;;;;;19.14;59.96;101321.03;4213075;28;20043;-61
2022/07/12 03:42:05;;;;;;;4.53;2.35;;;;;;;19.12;59.88;101328.09;4220436;28;20399;-61
2022/07/12 03:44:08;;;;;;;4.38;2.78;;;;;;;19.12;59.79;101333.34;4195418;28;20037;-61
2022/07/12 03:46:11;;;;;;;5.60;2.10;;;;;;;19.04;60.29;101322.88;4206114;28;20047;-61
2022/07/12 03:48:14;;;;;;;4.97;2.53;;;;;;;19.01;60.74;101326.41;4213152;28;20036;-61
2022/07/12 03:50:17;;;;;;;4.97;2.63;;;;;;;19.00;60.62;101331.69;4210409;28;20072;-61
2022/07/12 03:52:21;;;;;;;6.95;2.88;;;;;;;18.97;60.96;101331.72;4210473;28;20404;-61
2022/07/12 03:54:24;;;;;;;9.40;2.78;;;;;;;18.93;60.90;101325.56;4211809;28;20032;-61
2022/07/12 03:58:47;;;;;;;4.57;2.85;;;;;;;18.93;61.07;101329.97;4216269;28;20055;-61
2022/07/12 04:00:50;;;;;;;5.03;2.70;;;;;;;18.97;60.64;101331.72;4216413;28;20043;-62
2022/07/12 04:02:54;;;;;;;4.93;2.80;;;;;;;18.93;61.14;101333.47;4197071;28;20036;-62
2022/07/12 04:04:57;;;;;;;;;;;;;;;18.72;61.71;101339.72;4222706;28;20414;-62
2022/07/12 04:07:00;;;;;;;6.00;2.78;;;;;;;18.78;61.05;101339.69;4207878;28;19934;-62
2022/07/12 04:09:05;;;;;;;3.45;2.42;;;;;;;18.83;61.20;101331.75;4216641;28;20031;-62
2022/07/12 04:11:08;;;;;;;3.70;2.55;;;;;;;18.83;61.47;101335.25;4208111;28;20036;-62
2022/07/12 04:13:11;;;;;;;4.35;2.70;;;;;;;18.85;61.25;101324.69;4213969;28;20036;-62
2022/07/12 04:15:14;;;;;;;2.58;1.95;;;;;;;18.86;61.53;101322.97;4215710;28;20056;-62
2022/07/12 04:17:17;;;;;;;6.03;2.25;;;;;;;18.87;61.10;101328.25;4203551;28;20119;-62
2022/07/12 04:19:23;;;;;;;4.80;2.43;;;;;;;18.87;61.24;101332.66;4215784;28;20036;-62
2022/07/12 04:21:26;;;;;;;9.10;2.65;;;;;;;18.88;61.93;101326.47;4204639;28;20075;-62
2022/07/12 04:23:29;;;;;;;4.95;2.33;;;;;;;18.86;62.19;101322.97;4213272;28;20032;-61
2022/07/12 04:25:33;;;;;;;4.85;2.80;;;;;;;18.78;61.95;101323.88;4217250;28;20126;-62
2022/07/12 04:27:37;;;;;;;3.15;2.08;;;;;;;18.68;62.88;101314.28;4214843;28;20404;-61
2022/07/12 04:29:39;;;;;;;3.60;2.03;;;;;;;18.64;62.58;101317.81;4216393;28;20497;-62
2022/07/12 04:31:42;;;;;;;4.10;2.17;;;;;;;18.65;63.05;101323.06;4214192;28;20036;-62
2022/07/12 04:33:45;;;;;;;7.75;2.50;;;;;;;18.74;62.36;101322.13;4193804;28;20560;-62
2022/07/12 04:35:48;;;;;;;2.53;2.00;;;;;;;18.79;62.32;101330.00;4199533;28;20494;-61
2022/07/12 04:37:51;;;;;;;4.75;2.20;;;;;;;18.82;62.11;101327.34;4213491;28;20036;-61
2022/07/12 04:39:54;;;;;;;3.88;2.00;;;;;;;18.89;61.71;101322.97;4209458;28;20399;-61
2022/07/12 04:41:58;;;;;;;4.28;2.10;;;;;;;18.96;61.15;101324.69;4205078;28;20040;-62
2022/07/12 04:44:03;;;;;;;6.10;2.08;;;;;;;19.00;60.71;101329.91;4209429;28;20513;-62
2022/07/12 04:46:07;;;;;;;4.18;2.20;;;;;;;19.01;60.88;101325.50;4205389;28;20036;-61
2022/07/12 04:48:10;;;;;;;6.93;2.72;;;;;;;19.00;60.89;101329.91;4216024;28;20036;-62
2022/07/12 04:50:14;;;;;;;8.05;2.83;;;;;;;19.09;60.10;101322.84;4198244;28;20054;-62
2022/07/12 04:52:16;;;;;;;8.20;2.40;;;;;;;19.14;60.21;101326.31;4211788;28;20028;-61
2022/07/12 04:54:19;;;;;;;4.93;2.50;;;;;;;19.17;59.50;101327.16;4215206;28;20127;-62
2022/07/12 04:56:22;;;;;;;2.88;2.13;;;;;;;19.22;59.76;101326.28;4207381;28;20032;-62
2022/07/12 04:58:26;;;;;;;7.13;2.15;;;;;;;19.22;59.38;101334.19;4196427;28;20037;-62
2022/07/12 05:00:29;;;;;;;2.65;2.13;;;;;;;19.25;59.17;101329.75;4181480;28;20143;-62
2022/07/12 05:02:33;;;;;;;4.30;2.22;;;;;;;19.26;59.36;101330.59;4214959;28;20046;-62
2022/07/12 05:04:35;;;;;;;5.63;2.50;;;;;;;19.28;58.92;101328.84;4202817;28;20036;-62
2022/07/12 05:06:38;;;;;;;8.90;3.08;;;;;;;19.32;59.10;101331.44;4209763;28;20051;-62
2022/07/12 05:08:41;;;;;;;4.03;2.70;;;;;;;19.30;59.07;101325.31;4219627;28;20040;-62
2022/07/12 05:10:44;;;;;;;5.57;2.92;;;;;;;19.32;58.75;101333.22;4205236;28;20046;-62
2022/07/12 05:12:47;;;;;;;4.72;2.67;;;;;;;19.31;58.60;101328.81;4213299;28;20038;-62
2022/07/12 05:14:52;;;;;;;8.20;4.13;;;;;;;19.29;58.75;101331.47;4202229;28;20067;-62
2022/07/12 05:16:55;;;;;;;6.45;3.92;;;;;;;19.33;58.72;101341.09;4210006;28;20032;-62
2022/07/12 05:18:57;;;;;;;5.50;3.45;;;;;;;19.31;59.20;101334.97;4214623;28;20060;-62
2022/07/12 05:21:01;;;;;;;5.03;3.05;;;;;;;19.35;58.87;101344.59;4211446;28;20040;-63
2022/07/12 05:23:03;;;;;;;11.07;4.40;;;;;;;19.40;58.54;101349.81;4213835;28;20039;-62
2022/07/12 05:25:08;;;;;;;8.55;4.55;;;;;;;19.45;58.74;101348.03;4190185;28;20419;-62
2022/07/12 05:27:11;;;;;;;9.27;4.35;;;;;;;19.41;58.29;101358.63;4213727;28;20536;-62
2022/07/12 05:29:14;;;;;;;6.13;4.25;;;;;;;19.48;58.51;101361.19;4207115;28;20393;-62
2022/07/12 05:31:18;;;;;;;8.45;4.80;;;;;;;19.55;58.50;101359.38;4202798;28;20500;-62
2022/07/12 05:33:21;;;;;;;7.35;4.30;;;;;;;19.53;58.24;101367.28;4213620;28;20111;-63
2022/07/12 05:35:24;;;;;;;10.40;4.78;;;;;;;19.61;58.82;101364.63;4198549;28;20036;-62
2022/07/12 05:37:27;;;;;;;9.32;5.15;;;;;;;19.65;58.32;101363.66;4212256;28;20098;-62
2022/07/12 05:39:30;;;;;;;9.70;5.38;;;;;;;19.69;58.39;101367.16;4215124;28;20055;-62
2022/07/12 05:41:33;;;;;;;12.18;5.47;;;;;;;19.67;58.17;101366.31;4214162;28;20504;-62
2022/07/12 05:43:36;;;;;;;8.18;5.22;;;;;;;19.80;57.86;101370.63;4213701;28;20083;-62
2022/07/12 05:45:41;;;;;;;12.15;5.28;;;;;;;19.76;58.21;101362.72;4214106;28;20032;-62
2022/07/12 05:47:46;;;;;;;8.30;4.85;;;;;;;19.73;58.22;101375.91;4210963;28;20036;-62
2022/07/12 05:49:48;;;;;;;;;;;;;;;19.75;57.96;101382.94;4198420;28;20414;-62
2022/07/12 05:54:12;;;;;;;7.70;3.97;;;;;;;19.95;57.83;101384.56;4214850;28;20040;-62
2022/07/12 05:56:15;;;;;;;6.18;3.92;;;;;;;19.95;57.49;101395.13;4210478;28;20054;-62
2022/07/12 05:58:18;;;;;;;4.68;2.72;;;;;;;19.93;57.77;101394.25;4210641;28;20048;-62
2022/07/12 06:00:21;;;;;;;8.80;3.38;;;;;;;20.12;57.46;101400.22;4211227;28;20129;-62
2022/07/12 06:02:24;;;;;;;5.63;3.08;;;;;;;20.13;56.91;101397.56;4208734;28;20054;-62
2022/07/12 06:04:29;;;;;;;4.70;3.15;;;;;;;20.01;57.28;101398.56;4210986;28;20048;-62
2022/07/12 06:06:32;;;;;;;3.42;2.50;;;;;;;19.93;57.74;101400.41;4217637;28;20515;-63
2022/07/12 06:08:35;;;;;;;5.18;2.92;;;;;;;20.03;57.25;101409.09;4200398;28;20115;-63
2022/07/12 06:10:38;;;;;;;6.70;2.55;;;;;;;20.07;57.20;101405.53;4214480;28;20040;-62
2022/07/12 06:12:41;;;;;;;7.85;2.70;;;;;;;20.11;57.48;101407.28;4213825;28;20047;-63
2022/07/12 06:14:44;;;;;;;3.20;2.38;;;;;;;20.20;56.70;101407.16;4213596;28;20462;-61
2022/07/12 06:16:47;;;;;;;5.40;2.42;;;;;;;20.25;56.92;101406.25;4213327;28;20589;-61
2022/07/12 06:18:50;;;;;;;3.45;2.78;;;;;;;20.28;57.48;101407.09;4210283;28;20040;-61
2022/07/12 06:20:54;;;;;;;4.60;2.50;;;;;;;20.33;57.11;101409.69;4214101;28;20032;-61
2022/07/12 06:22:57;;;;;;;;;;;;;;;20.29;56.97;101406.19;4213299;28;20036;-61
2022/07/12 06:25:00;;;;;;;3.85;2.60;;;;;;;20.47;56.74;101415.69;4215249;28;19921;-61
2022/07/12 06:27:23;;;;;;;5.85;2.47;;;;;;;20.47;56.47;101418.34;4213087;28;20046;-61
2022/07/12 06:29:25;;;;;;;7.30;2.88;;;;;;;20.57;56.16;101412.06;4205458;28;20494;-62
2022/07/12 06:31:28;;;;;;;6.70;2.13;;;;;;;20.52;55.98;101416.50;4207148;28;20493;-61
2022/07/12 06:33:37;;;;;;;4.15;2.47;;;;;;;20.67;55.45;101417.25;4210964;28;20094;-61
2022/07/12 06:35:40;;;;;;;4.55;2.60;;;;;;;20.61;55.70;101417.28;4202932;28;20032;-62
2022/07/12 06:37:45;;;;;;;6.68;2.50;;;;;;;20.70;55.39;101428.63;4213179;28;20587;-61
2022/07/12 06:39:48;;;;;;;3.38;2.20;;;;;;;20.69;55.76;101428.66;4213100;28;20051;-61
2022/07/12 06:41:50;;;;;;;3.00;2.25;;;;;;;20.74;55.57;101432.13;4212373;28;20038;-61
2022/07/12 06:43:53;;;;;;;8.02;2.28;;;;;;;20.74;55.77;101429.50;4212738;28;20074;-62
2022/07/12 06:45:56;;;;;;;4.03;2.10;;;;;;;20.74;55.69;101434.78;4212484;28;20039;-61
2022/07/12 06:47:59;;;;;;;4.28;2.58;;;;;;;20.79;55.50;101432.94;4200712;28;20437;-62
2022/07/12 06:50:02;;;;;;;3.95;2.10;;;;;;;20.80;55.83;101423.25;4210709;28;20119;-61
2022/07/12 06:52:06;;;;;;;5.28;2.15;;;;;;;20.84;55.13;101431.13;4195263;28;20052;-61
2022/07/12 06:54:10;;;;;;;5.75;2.67;;;;;;;21.02;54.79;101437.06;4211133;28;20071;-61
2022/07/12 06:56:15;;;;;;;3.13;2.00;;;;;;;20.88;55.53;101438.13;4211647;28;20115;-62
2022/07/12 06:58:17;;;;;;;2.60;1.58;;;;;;;20.87;55.63;101431.06;4206098;28;20042;-61
2022/07/12 07:00:20;;;;;;;2.17;1.80;;;;;;;20.98;55.61;101437.97;4212875;28;20541;-61
2022/07/12 07:02:23;;;;;;;3.95;2.20;;;;;;;21.27;54.32;101440.22;4225749;27;20059;-61
2022/07/12 07:04:26;;;;;;;1.63;1.48;;;;;;;21.12;54.83;101437.81;4203893;28;20050;-62
2022/07/12 07:06:29;;;;;;;3.72;1.85;;;;;;;21.22;54.40;101442.06;4212510;28;20047;-61
2022/07/12 07:08:32;;;;;;;3.60;2.25;;;;;;;21.26;54.61;101444.66;4212303;28;20032;-61
2022/07/12 07:10:37;;;;;;;3.22;1.88;;;;;;;21.38;54.26;101454.16;4209616;28;20625;-61
2022/07/12 07:12:39;;;;;;;3.83;2.38;;;;;;;21.53;53.77;101450.44;4206047;28;20064;-61
2022/07/12 07:14:42;;;;;;;2.13;1.80;;;;;;;21.45;54.28;101449.66;4208330;28;20032;-62
2022/07/12 07:16:46;;;;;;;3.17;2.15;;;;;;;21.46;54.55;101448.75;4214384;28;20496;-62
2022/07/12 07:18:49;;;;;;;3.63;1.77;;;;;;;21.57;53.91;101449.50;4209364;28;20582;-61
2022/07/12 07:20:52;;;;;;;4.13;1.95;;;;;;;21.57;53.84;101456.56;4213890;28;20136;-61
2022/07/12 07:22:55;;;;;;;6.10;1.75;;;;;;;21.57;53.48;101444.22;4215647;28;20122;-63
2022/07/12 07:24:58;;;;;;;1.60;1.10;;;;;;;21.50;54.28;101439.00;4220447;28;20040;-62
2022/07/12 07:27:03;;;;;;;2.67;1.85;;;;;;;21.68;54.02;101440.50;4207280;28;20494;-62
2022/07/12 07:31:26;;;;;;;2.75;1.70;;;;;;;21.95;52.88;101440.06;4213209;28;20048;-62
2022/07/12 07:33:29;;;;;;;2.83;1.83;;;;;;;21.87;52.23;101431.34;4214893;28;20123;-62
2022/07/12 07:35:33;;;;;;;1.43;1.30;;;;;;;21.76;52.63;101443.94;4196527;28;20040;-62
2022/07/12 07:37:36;;;;;;;3.85;1.50;;;;;;;21.73;53.07;101426.31;4217055;28;20050;-60
2022/07/12 07:39:38;;;;;;;6.10;1.23;;;;;;;21.89;52.82;101432.22;4216196;28;20039;-61
2022/07/12 07:41:41;;;;;;;2.67;1.27;;;;;;;21.88;53.04;101427.81;4206438;28;20059;-61
2022/07/12 07:43:46;;;;;;;4.45;1.35;;;;;;;21.99;52.65;101425.00;4216074;28;20036;-61
2022/07/12 07:45:49;;;;;;;;;;;;;;;22.15;52.11;101425.56;4216252;28;20036;-62
2022/07/12 07:47:52;;;;;;;1.25;1.15;;;;;;;22.05;52.18;101424.88;4215736;28;19935;-62
2022/07/12 07:50:16;;;;;;;1.83;1.38;;;;;;;22.15;52.22;101430.84;4215831;28;20040;-61
2022/07/12 07:52:19;;;;;;;2.23;1.00;;;;;;;22.27;51.67;101430.66;4210567;28;20483;-61
2022/07/12 07:54:22;;;;;;;4.65;1.10;;;;;;;22.38;51.44;101426.94;4215460;28;20483;-61
2022/07/12 07:56:25;;;;;;;1.85;1.00;;;;;;;22.36;50.97;101423.47;4215720;28;20036;-62
2022/07/12 07:58:28;;;;;;;1.05;0.90;;;;;;;22.43;51.40;101425.09;4214143;28;20047;-61
2022/07/12 08:00:32;;;;;;;4.00;1.00;;;;;;;22.49;50.76;101422.31;4214989;28;20504;-61
2022/07/12 08:02:35;;;;;;;4.18;1.33;;;;;;;22.56;50.00;101425.69;4214375;28;20042;-62
2022/07/12 08:04:38;;;;;;;7.63;1.38;;;;;;;22.72;50.36;101428.91;4214138;28;20028;-61
2022/07/12 08:06:42;;;;;;;4.25;1.23;;;;;;;22.73;49.76;101428.88;4210086;28;20060;-61
2022/07/12 08:08:45;;;;;;;2.38;1.05;;;;;;;22.61;50.20;101430.00;4199735;28;20039;-61
2022/07/12 08:11:08;;;;;;;2.30;1.00;;;;;;;22.64;49.77;101423.78;4205323;28;20123;-63
2022/07/12 08:13:11;;;;;;;1.30;1.00;;;;;;;22.66;49.96;101433.44;4212448;28;20040;-61
2022/07/12 08:15:14;;;;;;;1.85;0.95;;;;;;;22.83;49.45;101434.88;4219248;28;20551;-61
2022/07/12 08:17:18;;;;;;;1.30;0.80;;;;;;;22.96;49.28;101430.19;4207317;28;20047;-61
2022/07/12 08:19:21;;;;;;;0.77;0.77;;;;;;;23.04;48.16;101430.00;4214126;28;20050;-61
2022/07/12 08:21:24;;;;;;;1.67;1.10;;;;;;;23.05;48.77;101434.41;4213499;28;20066;-62
2022/07/12 08:23:28;;;;;;;2.70;0.90;;;;;;;23.17;47.52;101428.84;4200669;28;20139;-62
2022/07/12 08:25:31;;;;;;;1.92;1.15;;;;;;;23.19;48.16;101427.03;4214278;28;20044;-61
2022/07/12 08:27:34;;;;;;;1.88;1.13;;;;;;;23.28;48.10;101431.28;4212936;28;20044;-61
2022/07/12 08:29:37;;;;;;;2.50;1.10;;;;;;;23.25;47.82;101431.34;4212494;28;20067;-62
2022/07/12 08:31:40;;;;;;;1.30;0.80;;;;;;;23.26;48.09;101420.69;4207102;28;20123;-62
2022/07/12 08:33:44;;;;;;;7.95;0.68;;;;;;;23.50;44.66;101426.31;4214307;28;20071;-62
2022/07/12 08:35:47;;;;;;;2.10;0.80;;;;;;;23.48;45.12;101425.47;4211776;28;20116;-62
2022/07/12 08:37:50;;;;;;;0.73;0.45;;;;;;;23.42;45.19;101415.91;4212918;28;20028;-62
2022/07/12 08:39:54;;;;;;;0.75;0.68;;;;;;;23.59;45.50;101427.88;4209603;28;20382;-62
2022/07/12 08:41:58;;;;;;;1.35;0.60;;;;;;;23.62;45.50;101431.31;4207122;28;20521;-62
2022/07/12 08:44:02;;;;;;;2.55;0.63;;;;;;;23.63;45.54;101422.44;4215415;28;20131;-61
2022/07/12 08:46:06;;;;;;;1.07;0.70;;;;;;;23.88;45.39;101432.47;4212055;28;20036;-62
2022/07/12 08:48:09;;;;;;;;;;;;;;;23.91;44.54;101427.09;4212776;28;20293;-62
2022/07/12 08:50:18;;;;;;;1.20;0.60;;;;;;;23.83;45.52;101427.25;4215491;28;20448;-62
2022/07/12 08:52:28;;;;;;;1.38;0.93;;;;;;;23.83;45.90;101426.38;4208280;28;20032;-62
2022/07/12 08:54:39;;;;;;;2.28;0.73;;;;;;;24.01;44.62;101423.28;4212444;28;20134;-62
2022/07/12 08:56:44;;;;;;;1.75;0.70;;;;;;;23.92;44.41;101428.84;4215786;28;20123;-61
2022/07/12 08:59:09;;;;;;;2.63;1.10;;;;;;;23.94;44.15;101437.63;4215929;28;20691;-63
2022/07/12 09:01:11;;;;;;;0.80;0.77;;;;;;;23.63;45.08;101434.84;4207584;28;20401;-63
2022/07/12 09:03:14;;;;;;;1.13;0.80;;;;;;;23.48;45.11;101441.38;4211793;28;20282;-62
2022/07/12 09:05:20;;;;;;;0.70;0.70;;;;;;;23.47;44.99;101437.00;4209871;28;20028;-62
2022/07/12 09:07:26;;;;;;;1.25;0.68;;;;;;;23.61;43.99;101439.31;4213123;28;20114;-62
2022/07/12 09:09:32;;;;;;;0.40;0.40;;;;;;;23.76;43.36;101432.75;4211990;28;20036;-62
2022/07/12 09:11:37;;;;;;;0.40;0.40;;;;;;;23.81;43.39;101428.19;4214040;28;21272;-62
2022/07/12 09:13:49;;;;;;;0.50;0.50;;;;;;;24.03;42.61;101428.53;4215289;28;20476;-63
2022/07/12 09:15:53;;;;;;;1.23;0.80;;;;;;;24.00;43.47;101431.28;4214385;28;20076;-62
2022/07/12 09:17:58;;;;;;;2.27;0.77;;;;;;;24.18;43.21;101428.16;4214222;28;20029;-62
2022/07/12 09:20:01;;;;;;;1.23;0.60;;;;;;;24.07;44.01;101427.56;4208369;28;20038;-61
2022/07/12 09:22:14;;;;;;;1.90;0.70;;;;;;;24.17;43.27;101433.50;4203297;28;20123;-62
2022/07/12 09:24:18;;;;;;;1.20;0.70;;;;;;;24.07;42.97;101426.69;4213272;28;20043;-62
2022/07/12 09:26:22;;;;;;;;;;;;;;;24.28;42.16;101430.53;4210347;28;20131;-62
2022/07/12 09:28:25;;;;;;;0.65;0.65;;;;;;;24.30;41.73;101424.28;4208710;28;19920;-62
2022/07/12 09:30:29;;;;;;;0.50;0.50;;;;;;;24.47;41.23;101422.94;4208985;28;20496;-61
2022/07/12 09:37:18;;;;;;;;;;;;;;;24.57;42.11;101408.44;4200820;28;20036;-62
2022/07/12 09:39:23;;;;;;;0.55;0.55;;;;;;;24.71;41.87;101405.44;4217435;28;19920;-62
2022/07/12 09:41:26;;;;;;;0.52;0.52;;;;;;;24.74;41.54;101403.53;4209774;28;20166;-63
2022/07/12 09:43:29;;;;;;;0.60;0.60;;;;;;;24.66;41.40;101408.22;4212160;28;20040;-62
2022/07/12 09:45:33;;;;;;;1.65;0.73;;;;;;;24.71;41.44;101408.94;4206587;28;20048;-62
2022/07/12 09:47:36;;;;;;;3.95;0.70;;;;;;;24.76;41.32;101402.63;4212479;28;20044;-62
2022/07/12 09:49:39;;;;;;;0.77;0.77;;;;;;;24.57;41.97;101413.75;4213707;28;20663;-62
2022/07/12 09:51:44;;;;;;;2.53;0.75;;;;;;;24.40;41.69;101408.94;4213007;28;20038;-62
2022/07/12 09:53:49;;;;;;;2.45;0.80;;;;;;;24.32;40.82;101409.16;4208820;28;20036;-62